Time;durP1;ratioP1;P1;durP2;ratioP2;P2;SDS_P1;SDS_P2;PMS_P1;PMS_P2;Temp;Humidity;BMP_temperature;BMP_pressure;BME280_temperature;BME280_humidity;BME280_pressure;Samples;Min_cycle;Max_cycle;Signal;HPM_P1;HPM_P2
2023/09/22 00:00:22;;;;;;;5.78;3.08;;;;;;;;;;1044281;28;20420;-65
2023/09/22 00:01:12;;;;;;;8.15;3.58;;;;;;;;;;1044117;28;20048;-65
2023/09/22 00:01:43;;;;;;;5.30;2.95;;;;;;;;;;1044178;28;20053;-66
2023/09/22 00:02:14;;;;;;;6.00;2.85;;;;;;;;;;1043514;28;20048;-67
2023/09/22 00:02:46;;;;;;;6.15;3.20;;;;;;;;;;1044943;28;20052;-66
2023/09/22 00:03:17;;;;;;;6.82;3.05;;;;;;;;;;1045225;28;20524;-67
2023/09/22 00:03:48;;;;;;;4.68;3.03;;;;;;;;;;1044063;28;20570;-66
2023/09/22 00:04:18;;;;;;;5.75;3.30;;;;;;;;;;1041516;28;20140;-66
2023/09/22 00:04:49;;;;;;;4.68;3.00;;;;;;;;;;1040176;28;20056;-66
2023/09/22 00:05:19;;;;;;;6.30;3.40;;;;;;;;;;1039608;28;20049;-66
2023/09/22 00:05:52;;;;;;;4.72;3.10;;;;;;;;;;1041570;28;20140;-66
2023/09/22 00:06:22;;;;;;;10.38;3.10;;;;;;;;;;1040834;28;20101;-66
2023/09/22 00:06:53;;;;;;;7.32;3.20;;;;;;;;;;1041900;28;20107;-66
2023/09/22 00:07:24;;;;;;;6.30;3.13;;;;;;;;;;1040473;28;20047;-66
2023/09/22 00:07:55;;;;;;;4.90;2.97;;;;;;;;;;1039901;28;20049;-66
2023/09/22 00:08:25;;;;;;;6.82;3.47;;;;;;;;;;1040154;28;20114;-65
2023/09/22 00:08:56;;;;;;;7.90;3.20;;;;;;;;;;1041183;28;20057;-66
2023/09/22 00:09:27;;;;;;;6.65;3.15;;;;;;;;;;1039826;28;20150;-66
2023/09/22 00:09:57;;;;;;;6.57;3.55;;;;;;;;;;1039755;28;20413;-65
2023/09/22 00:10:28;;;;;;;7.75;3.55;;;;;;;;;;1041735;28;20053;-66
2023/09/22 00:10:58;;;;;;;4.95;3.10;;;;;;;;;;1041217;28;21618;-66
2023/09/22 00:11:30;;;;;;;5.25;3.45;;;;;;;;;;1039412;28;20056;-66
2023/09/22 00:12:01;;;;;;;6.88;3.60;;;;;;;;;;1040676;28;20041;-66
2023/09/22 00:12:32;;;;;;;7.57;3.40;;;;;;;;;;1040806;28;20057;-67
2023/09/22 00:13:04;;;;;;;6.30;3.00;;;;;;;;;;1041255;28;20044;-66
2023/09/22 00:13:35;;;;;;;6.00;3.13;;;;;;;;;;1041064;28;20053;-67
2023/09/22 00:14:07;;;;;;;6.38;3.40;;;;;;;;;;1040479;28;20053;-66
2023/09/22 00:14:38;;;;;;;6.95;3.15;;;;;;;;;;1040802;28;20045;-66
2023/09/22 00:15:09;;;;;;;5.63;3.40;;;;;;;;;;1039972;28;20134;-66
2023/09/22 00:15:40;;;;;;;7.82;3.22;;;;;;;;;;1041876;28;20136;-66
2023/09/22 00:16:11;;;;;;;7.07;3.30;;;;;;;;;;1039515;28;20049;-66
2023/09/22 00:16:42;;;;;;;4.72;3.15;;;;;;;;;;1041736;28;20056;-66
2023/09/22 00:17:13;;;;;;;7.75;3.58;;;;;;;;;;1041989;28;20060;-65
2023/09/22 00:17:43;;;;;;;5.35;3.53;;;;;;;;;;1040266;28;20052;-66
2023/09/22 00:18:14;;;;;;;7.80;3.20;;;;;;;;;;1042026;28;20057;-66
2023/09/22 00:18:45;;;;;;;5.93;3.53;;;;;;;;;;1039991;28;20044;-65
2023/09/22 00:19:15;;;;;;;6.60;3.13;;;;;;;;;;1040571;28;20048;-66
2023/09/22 00:19:46;;;;;;;5.97;3.10;;;;;;;;;;1041424;28;20044;-65
2023/09/22 00:20:16;;;;;;;6.72;3.45;;;;;;;;;;1040769;28;20048;-66
2023/09/22 00:20:47;;;;;;;4.75;3.30;;;;;;;;;;1041334;28;20102;-66
2023/09/22 00:21:18;;;;;;;8.63;3.65;;;;;;;;;;1040907;28;20106;-66
2023/09/22 00:21:48;;;;;;;4.97;3.00;;;;;;;;;;1042062;28;20049;-66
2023/09/22 00:22:19;;;;;;;6.45;3.10;;;;;;;;;;1040274;28;20044;-66
2023/09/22 00:22:49;;;;;;;5.03;3.53;;;;;;;;;;1041028;28;20148;-66
2023/09/22 00:23:20;;;;;;;5.55;3.15;;;;;;;;;;1040286;28;20472;-66
2023/09/22 00:23:51;;;;;;;4.93;3.00;;;;;;;;;;1041804;28;20495;-65
2023/09/22 00:24:22;;;;;;;4.20;3.30;;;;;;;;;;1039926;28;20052;-66
2023/09/22 00:24:53;;;;;;;4.45;3.20;;;;;;;;;;1041393;28;20044;-65
2023/09/22 00:25:23;;;;;;;4.57;3.05;;;;;;;;;;1041461;28;20049;-66
2023/09/22 00:25:54;;;;;;;4.88;3.08;;;;;;;;;;1041183;28;20404;-66
2023/09/22 00:26:25;;;;;;;4.50;3.00;;;;;;;;;;1040717;28;20056;-67
2023/09/22 00:26:55;;;;;;;7.88;3.25;;;;;;;;;;1039918;28;20512;-65
2023/09/22 00:27:26;;;;;;;10.35;3.50;;;;;;;;;;1039965;28;20049;-66
2023/09/22 00:27:57;;;;;;;6.68;3.78;;;;;;;;;;1039811;28;20059;-65
2023/09/22 00:28:28;;;;;;;8.63;3.03;;;;;;;;;;1039775;28;20045;-66
2023/09/22 00:28:58;;;;;;;9.07;3.33;;;;;;;;;;1041463;28;20045;-66
2023/09/22 00:29:29;;;;;;;5.35;2.92;;;;;;;;;;1039852;28;20057;-66
2023/09/22 00:29:59;;;;;;;5.43;3.28;;;;;;;;;;1041248;28;20053;-66
2023/09/22 00:30:30;;;;;;;4.88;2.97;;;;;;;;;;1043564;28;20167;-66
2023/09/22 00:31:00;;;;;;;4.20;2.78;;;;;;;;;;1045238;28;20083;-66
2023/09/22 00:31:31;;;;;;;7.57;3.42;;;;;;;;;;1045134;28;20052;-66
2023/09/22 00:32:02;;;;;;;7.68;3.17;;;;;;;;;;1045785;28;20059;-66
2023/09/22 00:32:32;;;;;;;7.45;3.08;;;;;;;;;;1043071;28;20049;-66
2023/09/22 00:33:03;;;;;;;7.47;3.45;;;;;;;;;;1045246;28;22503;-66
2023/09/22 00:33:34;;;;;;;6.93;3.30;;;;;;;;;;1044215;28;20048;-66
2023/09/22 00:34:05;;;;;;;7.38;3.45;;;;;;;;;;1045640;28;20056;-66
2023/09/22 00:34:35;;;;;;;6.50;3.15;;;;;;;;;;1045785;28;20131;-66
2023/09/22 00:35:06;;;;;;;6.10;2.90;;;;;;;;;;1042929;28;20522;-66
2023/09/22 00:35:37;;;;;;;6.07;3.30;;;;;;;;;;1045803;28;20048;-66
2023/09/22 00:36:08;;;;;;;5.15;3.20;;;;;;;;;;1044319;28;20055;-66
2023/09/22 00:36:38;;;;;;;6.15;3.13;;;;;;;;;;1045957;28;20052;-66
2023/09/22 00:37:09;;;;;;;7.22;3.38;;;;;;;;;;1044157;28;20079;-65
2023/09/22 00:37:40;;;;;;;7.57;3.97;;;;;;;;;;1044111;28;20048;-66
2023/09/22 00:38:11;;;;;;;5.63;3.38;;;;;;;;;;1043921;28;20048;-66
2023/09/22 00:38:41;;;;;;;5.80;3.28;;;;;;;;;;1045630;28;20052;-66
2023/09/22 00:39:12;;;;;;;6.72;4.22;;;;;;;;;;1043668;28;20055;-66
2023/09/22 00:39:43;;;;;;;4.97;3.00;;;;;;;;;;1044348;28;20048;-67
2023/09/22 00:40:14;;;;;;;5.38;3.30;;;;;;;;;;1042548;28;20059;-66
2023/09/22 00:40:45;;;;;;;5.43;3.47;;;;;;;;;;1043161;28;20072;-66
2023/09/22 00:41:15;;;;;;;6.13;3.10;;;;;;;;;;1044943;28;20549;-67
2023/09/22 00:41:46;;;;;;;5.10;3.38;;;;;;;;;;1045375;28;20430;-67
2023/09/22 00:42:16;;;;;;;4.25;3.30;;;;;;;;;;1045905;28;20062;-67
2023/09/22 00:42:47;;;;;;;6.57;3.75;;;;;;;;;;1043451;28;20447;-66
2023/09/22 00:43:18;;;;;;;6.97;3.63;;;;;;;;;;1046005;28;20774;-66
2023/09/22 00:43:48;;;;;;;5.05;3.33;;;;;;;;;;1045454;28;20052;-66
2023/09/22 00:44:18;;;;;;;5.45;3.22;;;;;;;;;;1044316;28;20052;-65
2023/09/22 00:44:49;;;;;;;7.25;3.53;;;;;;;;;;1043570;28;20517;-65
2023/09/22 00:45:19;;;;;;;6.43;3.50;;;;;;;;;;1043225;28;20068;-65
2023/09/22 00:45:52;;;;;;;5.55;3.15;;;;;;;;;;1043056;28;20044;-66
2023/09/22 00:46:25;;;;;;;7.38;3.17;;;;;;;;;;1045575;28;20043;-67
2023/09/22 00:46:57;;;;;;;8.25;3.75;;;;;;;;;;1044828;28;20202;-66
2023/09/22 00:47:28;;;;;;;7.78;3.45;;;;;;;;;;1044439;28;20072;-66
2023/09/22 00:47:58;;;;;;;4.18;3.58;;;;;;;;;;1042232;28;20048;-66
2023/09/22 00:48:34;;;;;;;5.13;3.38;;;;;;;;;;1045798;28;20877;-66
2023/09/22 00:49:06;;;;;;;8.63;3.90;;;;;;;;;;1043709;28;20826;-66
2023/09/22 00:49:37;;;;;;;5.75;3.50;;;;;;;;;;1045013;28;23317;-66
2023/09/22 00:50:11;;;;;;;5.63;3.15;;;;;;;;;;1044047;28;20064;-66
2023/09/22 00:50:41;;;;;;;4.85;3.08;;;;;;;;;;1045919;28;20478;-66
2023/09/22 00:51:12;;;;;;;5.15;3.22;;;;;;;;;;1041629;28;20520;-66
2023/09/22 00:51:44;;;;;;;5.00;3.10;;;;;;;;;;1045873;28;20040;-66
2023/09/22 00:52:16;;;;;;;4.65;3.60;;;;;;;;;;1038689;28;20061;-66
2023/09/22 00:52:47;;;;;;;5.38;3.40;;;;;;;;;;1040922;28;20690;-66
2023/09/22 00:53:18;;;;;;;6.15;3.60;;;;;;;;;;1040105;28;20732;-66
2023/09/22 00:53:50;;;;;;;4.97;3.30;;;;;;;;;;1040909;28;20316;-66
2023/09/22 00:54:20;;;;;;;5.38;3.40;;;;;;;;;;1040969;28;20147;-66
2023/09/22 00:54:51;;;;;;;4.65;2.90;;;;;;;;;;1042473;28;20055;-65
2023/09/22 00:55:22;;;;;;;9.45;3.60;;;;;;;;;;1043767;28;20049;-66
2023/09/22 00:55:53;;;;;;;6.15;3.45;;;;;;;;;;1045944;28;20048;-66
2023/09/22 00:56:25;;;;;;;4.60;3.00;;;;;;;;;;1044380;28;20079;-66
2023/09/22 00:56:55;;;;;;;4.82;2.90;;;;;;;;;;1044443;28;20044;-66
2023/09/22 00:57:26;;;;;;;5.95;3.40;;;;;;;;;;1044474;28;20083;-66
2023/09/22 00:57:58;;;;;;;7.53;3.22;;;;;;;;;;1044220;28;20048;-66
2023/09/22 00:58:29;;;;;;;8.93;3.60;;;;;;;;;;1044288;28;20526;-65
2023/09/22 00:59:00;;;;;;;5.00;3.22;;;;;;;;;;1045993;28;20420;-67
2023/09/22 00:59:32;;;;;;;5.30;3.25;;;;;;;;;;1044927;28;20193;-66
2023/09/22 01:00:04;;;;;;;6.78;3.33;;;;;;;;;;1042724;28;20074;-66
2023/09/22 01:00:35;;;;;;;5.75;2.90;;;;;;;;;;1042874;28;20090;-66
2023/09/22 01:01:05;;;;;;;5.40;3.30;;;;;;;;;;1045927;28;20055;-66
2023/09/22 01:01:36;;;;;;;7.50;3.63;;;;;;;;;;1046044;28;20103;-65
2023/09/22 01:02:07;;;;;;;3.83;2.80;;;;;;;;;;1044432;28;20063;-66
2023/09/22 01:02:38;;;;;;;5.63;3.45;;;;;;;;;;1045933;28;20048;-66
2023/09/22 01:03:09;;;;;;;6.25;3.10;;;;;;;;;;1045188;28;20097;-66
2023/09/22 01:03:39;;;;;;;7.25;3.35;;;;;;;;;;1044043;28;20060;-65
2023/09/22 01:04:13;;;;;;;6.28;3.65;;;;;;;;;;1042748;28;20055;-66
2023/09/22 01:04:43;;;;;;;5.05;3.10;;;;;;;;;;1043996;28;20041;-66
2023/09/22 01:05:16;;;;;;;6.85;3.30;;;;;;;;;;1043427;28;20088;-66
2023/09/22 01:05:46;;;;;;;5.57;3.28;;;;;;;;;;1045253;28;20488;-66
2023/09/22 01:06:18;;;;;;;4.78;3.45;;;;;;;;;;1042701;28;20053;-66
2023/09/22 01:06:48;;;;;;;4.78;3.55;;;;;;;;;;1046021;28;20484;-65
2023/09/22 01:07:19;;;;;;;7.53;3.38;;;;;;;;;;1044467;28;20496;-66
2023/09/22 01:07:50;;;;;;;4.38;3.08;;;;;;;;;;1044155;28;20106;-66
2023/09/22 01:08:20;;;;;;;7.80;4.00;;;;;;;;;;1044740;28;20044;-66
2023/09/22 01:08:51;;;;;;;5.80;3.40;;;;;;;;;;1042547;28;20423;-67
2023/09/22 01:09:21;;;;;;;4.05;3.10;;;;;;;;;;1043062;28;20036;-65
2023/09/22 01:09:52;;;;;;;3.25;2.90;;;;;;;;;;1045878;28;20079;-66
2023/09/22 01:10:23;;;;;;;5.43;3.38;;;;;;;;;;1044637;28;20080;-66
2023/09/22 01:10:54;;;;;;;4.80;3.03;;;;;;;;;;1044498;28;20049;-66
2023/09/22 01:11:25;;;;;;;5.82;3.30;;;;;;;;;;1044689;28;20492;-66
2023/09/22 01:11:56;;;;;;;4.80;3.10;;;;;;;;;;1045469;28;20044;-66
2023/09/22 01:12:26;;;;;;;5.38;3.38;;;;;;;;;;1045008;28;20052;-66
2023/09/22 01:12:56;;;;;;;4.72;3.00;;;;;;;;;;1043198;28;20094;-67
2023/09/22 01:13:27;;;;;;;4.70;3.40;;;;;;;;;;1043888;28;20060;-65
2023/09/22 01:13:58;;;;;;;8.65;3.38;;;;;;;;;;1043817;28;20092;-66
2023/09/22 01:14:28;;;;;;;6.95;3.45;;;;;;;;;;1045664;28;20087;-66
2023/09/22 01:15:00;;;;;;;6.45;3.30;;;;;;;;;;1041495;28;20424;-66
2023/09/22 01:15:35;;;;;;;5.90;3.40;;;;;;;;;;1044292;28;20056;-66
2023/09/22 01:16:05;;;;;;;4.13;3.33;;;;;;;;;;1045091;28;20048;-65
2023/09/22 01:16:37;;;;;;;7.47;3.20;;;;;;;;;;1045733;28;20044;-66
2023/09/22 01:17:07;;;;;;;5.55;3.38;;;;;;;;;;1042786;28;20052;-66
2023/09/22 01:17:38;;;;;;;4.47;3.33;;;;;;;;;;1045634;28;20131;-66
2023/09/22 01:18:10;;;;;;;7.22;3.47;;;;;;;;;;1043653;28;20052;-65
2023/09/22 01:18:41;;;;;;;11.55;3.63;;;;;;;;;;1045881;28;20446;-65
2023/09/22 01:19:16;;;;;;;8.57;4.03;;;;;;;;;;1044508;28;20539;-66
2023/09/22 01:19:46;;;;;;;4.72;2.97;;;;;;;;;;1044730;28;20052;-66
2023/09/22 01:20:17;;;;;;;5.50;3.60;;;;;;;;;;1045057;28;20044;-65
2023/09/22 01:20:48;;;;;;;4.13;3.40;;;;;;;;;;1042292;28;20098;-66
2023/09/22 01:21:19;;;;;;;7.00;3.20;;;;;;;;;;1044686;28;20044;-66
2023/09/22 01:21:49;;;;;;;7.03;3.20;;;;;;;;;;1045928;28;20044;-66
2023/09/22 01:22:20;;;;;;;5.00;3.15;;;;;;;;;;1045596;28;20052;-66
2023/09/22 01:22:50;;;;;;;6.55;3.97;;;;;;;;;;1043400;28;20055;-65
2023/09/22 01:23:21;;;;;;;4.47;3.40;;;;;;;;;;1045557;28;20068;-66
2023/09/22 01:23:51;;;;;;;7.90;3.35;;;;;;;;;;1045594;28;20048;-65
2023/09/22 01:24:22;;;;;;;4.00;2.97;;;;;;;;;;1045920;28;20044;-66
2023/09/22 01:24:52;;;;;;;5.07;3.63;;;;;;;;;;1044399;28;20043;-66
2023/09/22 01:25:23;;;;;;;6.15;2.78;;;;;;;;;;1044136;28;20051;-66
2023/09/22 01:25:53;;;;;;;7.38;3.20;;;;;;;;;;1044405;28;20639;-66
2023/09/22 01:26:24;;;;;;;5.53;2.88;;;;;;;;;;1044525;28;20334;-66
2023/09/22 01:26:54;;;;;;;7.22;3.33;;;;;;;;;;1044905;27;20052;-66
2023/09/22 01:27:25;;;;;;;7.65;3.10;;;;;;;;;;1044094;28;20590;-66
2023/09/22 01:27:55;;;;;;;5.72;3.15;;;;;;;;;;1045101;28;20121;-66
2023/09/22 01:28:26;;;;;;;6.13;3.20;;;;;;;;;;1046284;28;20053;-66
2023/09/22 01:28:57;;;;;;;7.47;3.15;;;;;;;;;;1044973;28;20737;-67
2023/09/22 01:29:28;;;;;;;4.57;3.03;;;;;;;;;;1045173;28;20659;-66
2023/09/22 01:29:58;;;;;;;5.32;3.00;;;;;;;;;;1043658;28;20140;-67
2023/09/22 01:30:29;;;;;;;4.30;3.10;;;;;;;;;;1044131;28;20048;-66
2023/09/22 01:31:01;;;;;;;4.60;3.45;;;;;;;;;;1042931;28;21439;-66
2023/09/22 01:31:33;;;;;;;6.15;3.28;;;;;;;;;;1045531;28;20680;-66
2023/09/22 01:32:09;;;;;;;6.15;3.33;;;;;;;;;;1045461;28;20056;-65
2023/09/22 01:32:40;;;;;;;6.57;3.22;;;;;;;;;;1045875;28;20067;-66
2023/09/22 01:33:11;;;;;;;4.40;2.97;;;;;;;;;;1045645;28;20074;-66
2023/09/22 01:33:42;;;;;;;4.82;3.15;;;;;;;;;;1045447;28;20670;-66
2023/09/22 01:34:15;;;;;;;5.35;2.90;;;;;;;;;;1045506;28;20044;-66
2023/09/22 01:34:46;;;;;;;6.28;3.05;;;;;;;;;;1044143;28;20125;-66
2023/09/22 01:35:16;;;;;;;9.15;3.47;;;;;;;;;;1045744;28;20044;-65
2023/09/22 01:35:47;;;;;;;9.48;3.40;;;;;;;;;;1043391;28;22020;-65
2023/09/22 01:36:17;;;;;;;9.85;3.58;;;;;;;;;;1045842;28;20052;-66
2023/09/22 01:36:48;;;;;;;4.35;2.92;;;;;;;;;;1045227;28;20301;-65
2023/09/22 01:37:28;;;;;;;5.35;3.55;;;;;;;;;;1046012;28;20087;-66
2023/09/22 01:38:09;;;;;;;5.28;3.22;;;;;;;;;;1043544;28;20718;-66
2023/09/22 01:38:39;;;;;;;5.82;3.03;;;;;;;;;;1045751;28;20098;-66
2023/09/22 01:39:13;;;;;;;7.63;3.30;;;;;;;;;;1045007;28;20056;-66
2023/09/22 01:39:44;;;;;;;5.95;3.47;;;;;;;;;;1041652;28;20049;-66
2023/09/22 01:40:16;;;;;;;5.43;3.42;;;;;;;;;;1045099;28;20048;-66
2023/09/22 01:40:47;;;;;;;5.00;3.28;;;;;;;;;;1043299;28;20122;-66
2023/09/22 01:41:18;;;;;;;5.80;3.13;;;;;;;;;;1044020;28;20053;-66
2023/09/22 01:41:49;;;;;;;5.43;3.30;;;;;;;;;;1043453;28;20729;-65
2023/09/22 01:42:20;;;;;;;6.90;3.42;;;;;;;;;;1045440;28;20048;-66
2023/09/22 01:42:51;;;;;;;4.20;3.10;;;;;;;;;;1043658;28;20599;-66
2023/09/22 01:43:21;;;;;;;4.85;3.08;;;;;;;;;;1045048;28;20431;-66
2023/09/22 01:43:52;;;;;;;5.43;3.05;;;;;;;;;;1044518;28;20473;-66
2023/09/22 01:44:22;;;;;;;6.07;3.42;;;;;;;;;;1044996;28;20052;-66
2023/09/22 01:44:53;;;;;;;5.47;3.05;;;;;;;;;;1041743;28;20052;-66
2023/09/22 01:45:23;;;;;;;4.25;2.83;;;;;;;;;;1042434;28;20036;-66
2023/09/22 01:45:54;;;;;;;8.77;3.42;;;;;;;;;;1043928;28;20591;-65
2023/09/22 01:46:25;;;;;;;8.05;3.03;;;;;;;;;;1043416;28;20075;-66
2023/09/22 01:46:55;;;;;;;4.68;2.92;;;;;;;;;;1042335;28;20052;-66
2023/09/22 01:47:26;;;;;;;6.40;3.10;;;;;;;;;;1044962;28;20044;-66
2023/09/22 01:47:56;;;;;;;4.90;3.00;;;;;;;;;;1043330;28;20048;-66
2023/09/22 01:48:27;;;;;;;5.13;3.25;;;;;;;;;;1042245;28;20435;-67
2023/09/22 01:48:57;;;;;;;5.07;3.45;;;;;;;;;;1042672;28;20052;-66
2023/09/22 01:49:28;;;;;;;4.90;3.15;;;;;;;;;;1045156;28;20040;-66
2023/09/22 01:49:58;;;;;;;5.30;3.10;;;;;;;;;;1043531;28;20049;-66
2023/09/22 01:50:33;;;;;;;6.20;3.05;;;;;;;;;;1043715;28;20052;-65
2023/09/22 01:51:03;;;;;;;4.25;3.28;;;;;;;;;;1044254;28;20044;-66
2023/09/22 01:51:34;;;;;;;7.28;3.15;;;;;;;;;;1044429;28;20052;-65
2023/09/22 01:52:04;;;;;;;5.97;3.63;;;;;;;;;;1044288;28;20088;-66
2023/09/22 01:52:37;;;;;;;5.72;2.97;;;;;;;;;;1044145;28;20060;-66
2023/09/22 01:53:10;;;;;;;9.35;3.20;;;;;;;;;;1044717;28;20287;-66
2023/09/22 01:53:40;;;;;;;4.65;3.00;;;;;;;;;;1045068;28;20045;-66
2023/09/22 01:54:11;;;;;;;5.85;3.03;;;;;;;;;;1043352;28;20056;-65
2023/09/22 01:54:41;;;;;;;4.63;3.13;;;;;;;;;;1043720;28;21099;-66
2023/09/22 01:55:12;;;;;;;5.60;3.30;;;;;;;;;;1044571;28;20048;-66
2023/09/22 01:55:43;;;;;;;7.03;3.00;;;;;;;;;;1045111;28;20045;-66
2023/09/22 01:56:13;;;;;;;6.13;3.08;;;;;;;;;;1043811;28;20807;-66
2023/09/22 01:56:44;;;;;;;5.18;3.22;;;;;;;;;;1043720;28;20044;-67
2023/09/22 01:57:16;;;;;;;9.13;3.10;;;;;;;;;;1044852;28;20049;-66
2023/09/22 01:57:49;;;;;;;5.18;3.47;;;;;;;;;;1044431;28;20048;-66
2023/09/22 01:58:20;;;;;;;7.05;3.35;;;;;;;;;;1044467;28;20135;-66
2023/09/22 01:58:50;;;;;;;5.90;3.30;;;;;;;;;;1044616;28;20053;-66
2023/09/22 01:59:22;;;;;;;6.57;3.75;;;;;;;;;;1044390;28;20066;-67
2023/09/22 01:59:53;;;;;;;7.10;3.40;;;;;;;;;;1045252;28;20049;-66
2023/09/22 02:00:23;;;;;;;5.22;3.55;;;;;;;;;;1042335;28;22112;-66
2023/09/22 02:00:54;;;;;;;5.70;3.58;;;;;;;;;;1044161;28;20132;-66
2023/09/22 02:01:25;;;;;;;5.68;3.30;;;;;;;;;;1044240;28;20443;-65
2023/09/22 02:01:56;;;;;;;5.53;2.90;;;;;;;;;;1044199;28;20060;-67
2023/09/22 02:02:26;;;;;;;5.80;3.40;;;;;;;;;;1043207;28;20056;-66
2023/09/22 02:02:57;;;;;;;7.25;3.38;;;;;;;;;;1045168;28;20049;-66
2023/09/22 02:03:29;;;;;;;4.10;2.90;;;;;;;;;;1043426;28;20421;-66
2023/09/22 02:04:00;;;;;;;6.78;3.35;;;;;;;;;;1044392;28;20048;-66
2023/09/22 02:04:30;;;;;;;5.95;3.08;;;;;;;;;;1043598;28;20049;-66
2023/09/22 02:05:02;;;;;;;6.53;3.15;;;;;;;;;;1043837;28;20052;-66
2023/09/22 02:05:34;;;;;;;5.20;3.33;;;;;;;;;;1044860;28;20080;-66
2023/09/22 02:06:05;;;;;;;4.65;3.55;;;;;;;;;;1044217;28;20079;-66
2023/09/22 02:06:35;;;;;;;5.47;3.00;;;;;;;;;;1044080;28;20131;-67
2023/09/22 02:07:07;;;;;;;6.50;3.40;;;;;;;;;;1045153;28;20144;-66
2023/09/22 02:07:38;;;;;;;5.80;3.90;;;;;;;;;;1044835;28;20626;-66
2023/09/22 02:08:09;;;;;;;4.78;3.28;;;;;;;;;;1044771;28;20824;-66
2023/09/22 02:08:40;;;;;;;11.02;3.38;;;;;;;;;;1044083;28;20056;-66
2023/09/22 02:09:10;;;;;;;3.97;3.50;;;;;;;;;;1044208;28;20078;-66
2023/09/22 02:09:41;;;;;;;7.25;3.38;;;;;;;;;;1045866;28;20060;-66
2023/09/22 02:10:13;;;;;;;5.68;3.70;;;;;;;;;;1043938;28;20389;-66
2023/09/22 02:10:44;;;;;;;5.82;3.67;;;;;;;;;;1042265;28;20599;-66
2023/09/22 02:11:14;;;;;;;6.97;3.88;;;;;;;;;;1039247;28;20053;-66
2023/09/22 02:11:45;;;;;;;5.82;3.78;;;;;;;;;;1041295;28;20042;-66
2023/09/22 02:12:16;;;;;;;5.35;3.70;;;;;;;;;;1044527;28;20048;-65
2023/09/22 02:12:47;;;;;;;7.75;3.63;;;;;;;;;;1044963;28;20167;-66
2023/09/22 02:13:17;;;;;;;5.45;3.53;;;;;;;;;;1044838;28;20515;-66
2023/09/22 02:13:48;;;;;;;5.18;3.40;;;;;;;;;;1043552;28;20146;-66
2023/09/22 02:14:18;;;;;;;5.28;3.75;;;;;;;;;;1044028;28;20052;-66
2023/09/22 02:14:49;;;;;;;8.45;3.50;;;;;;;;;;1043329;28;22587;-66
2023/09/22 02:15:19;;;;;;;6.82;3.55;;;;;;;;;;1042948;28;20045;-66
2023/09/22 02:15:52;;;;;;;5.93;3.60;;;;;;;;;;1043086;28;20052;-67
2023/09/22 02:16:22;;;;;;;5.47;4.03;;;;;;;;;;1043453;28;20044;-66
2023/09/22 02:16:53;;;;;;;10.65;3.95;;;;;;;;;;1044820;28;20063;-66
2023/09/22 02:17:24;;;;;;;7.25;4.15;;;;;;;;;;1044783;28;20133;-66
2023/09/22 02:17:54;;;;;;;6.40;3.60;;;;;;;;;;1043486;28;20396;-66
2023/09/22 02:18:25;;;;;;;6.18;3.67;;;;;;;;;;1045417;28;20068;-65
2023/09/22 02:18:56;;;;;;;5.60;3.28;;;;;;;;;;1045462;28;20055;-67
2023/09/22 02:19:27;;;;;;;5.28;3.50;;;;;;;;;;1042125;28;20045;-66
2023/09/22 02:19:57;;;;;;;5.13;3.45;;;;;;;;;;1043897;28;20057;-66
2023/09/22 02:20:28;;;;;;;6.72;3.90;;;;;;;;;;1044344;28;20048;-66
2023/09/22 02:20:59;;;;;;;7.03;3.60;;;;;;;;;;1041914;28;21347;-66
2023/09/22 02:21:29;;;;;;;6.53;3.63;;;;;;;;;;1043718;28;20140;-67
2023/09/22 02:22:00;;;;;;;4.85;3.38;;;;;;;;;;1042725;28;20052;-66
2023/09/22 02:22:31;;;;;;;5.10;3.80;;;;;;;;;;1045147;28;20369;-66
2023/09/22 02:23:02;;;;;;;4.65;3.47;;;;;;;;;;1044544;28;20129;-66
2023/09/22 02:23:32;;;;;;;5.00;3.72;;;;;;;;;;1043968;28;20049;-66
2023/09/22 02:24:03;;;;;;;6.13;3.33;;;;;;;;;;1042863;28;20052;-66
2023/09/22 02:24:34;;;;;;;5.25;3.65;;;;;;;;;;1045389;28;20053;-65
2023/09/22 02:25:05;;;;;;;6.47;3.55;;;;;;;;;;1045001;28;20061;-65
2023/09/22 02:25:35;;;;;;;5.78;3.60;;;;;;;;;;1045701;28;20045;-66
2023/09/22 02:26:07;;;;;;;5.88;3.15;;;;;;;;;;1043704;28;20489;-66
2023/09/22 02:26:37;;;;;;;4.93;3.33;;;;;;;;;;1044569;28;20510;-66
2023/09/22 02:27:08;;;;;;;9.38;3.58;;;;;;;;;;1044924;28;20527;-66
2023/09/22 02:27:39;;;;;;;8.20;3.70;;;;;;;;;;1045245;28;20132;-65
2023/09/22 02:28:09;;;;;;;10.32;3.83;;;;;;;;;;1044812;28;22727;-66
2023/09/22 02:28:40;;;;;;;14.18;4.20;;;;;;;;;;1043894;28;20056;-67
2023/09/22 02:29:10;;;;;;;10.15;3.90;;;;;;;;;;1044938;28;20135;-66
2023/09/22 02:29:41;;;;;;;7.78;3.50;;;;;;;;;;1043951;28;20056;-67
2023/09/22 02:30:11;;;;;;;9.52;3.78;;;;;;;;;;1043698;28;20048;-66
2023/09/22 02:30:42;;;;;;;13.25;3.63;;;;;;;;;;1044255;28;20045;-66
2023/09/22 02:31:12;;;;;;;7.18;3.60;;;;;;;;;;1043496;28;20065;-66
2023/09/22 02:31:43;;;;;;;8.50;4.00;;;;;;;;;;1044771;28;20075;-66
2023/09/22 02:32:13;;;;;;;9.85;3.65;;;;;;;;;;1043011;28;20523;-66
2023/09/22 02:32:49;;;;;;;7.35;3.50;;;;;;;;;;1045225;28;20040;-66
2023/09/22 02:33:20;;;;;;;6.38;3.90;;;;;;;;;;1044143;28;20036;-66
2023/09/22 02:33:50;;;;;;;8.77;4.03;;;;;;;;;;1045846;28;20048;-66
2023/09/22 02:34:21;;;;;;;6.53;3.63;;;;;;;;;;1044698;28;20071;-66
2023/09/22 02:34:52;;;;;;;5.65;3.42;;;;;;;;;;1045916;28;20053;-66
2023/09/22 02:35:22;;;;;;;6.00;3.45;;;;;;;;;;1043161;28;20052;-67
2023/09/22 02:35:53;;;;;;;6.78;3.53;;;;;;;;;;1044457;28;20509;-66
2023/09/22 02:36:23;;;;;;;5.90;3.58;;;;;;;;;;1042905;28;20086;-66
2023/09/22 02:36:55;;;;;;;5.05;3.30;;;;;;;;;;1045261;28;20040;-65
2023/09/22 02:37:25;;;;;;;6.82;3.60;;;;;;;;;;1044981;28;20063;-66
2023/09/22 02:37:57;;;;;;;8.30;3.58;;;;;;;;;;1045661;28;20060;-66
2023/09/22 02:38:27;;;;;;;5.68;3.70;;;;;;;;;;1042191;28;20064;-66
2023/09/22 02:38:58;;;;;;;5.50;3.53;;;;;;;;;;1044557;28;20048;-66
2023/09/22 02:39:29;;;;;;;4.88;3.70;;;;;;;;;;1044135;28;20053;-66
2023/09/22 02:39:59;;;;;;;4.47;3.35;;;;;;;;;;1045524;28;20056;-66
2023/09/22 02:40:29;;;;;;;5.55;3.47;;;;;;;;;;1042863;28;20059;-66
2023/09/22 02:41:00;;;;;;;4.40;3.47;;;;;;;;;;1043653;28;20079;-66
2023/09/22 02:41:31;;;;;;;5.28;3.60;;;;;;;;;;1044271;28;20056;-66
2023/09/22 02:42:01;;;;;;;5.88;3.60;;;;;;;;;;1045065;28;20761;-66
2023/09/22 02:42:32;;;;;;;6.28;3.42;;;;;;;;;;1044586;28;20052;-66
2023/09/22 02:43:03;;;;;;;8.63;3.47;;;;;;;;;;1045294;28;20159;-67
2023/09/22 02:43:34;;;;;;;7.70;3.60;;;;;;;;;;1044270;28;20175;-66
2023/09/22 02:44:07;;;;;;;5.40;3.40;;;;;;;;;;1043969;28;20052;-66
2023/09/22 02:44:37;;;;;;;5.70;3.92;;;;;;;;;;1044728;28;20435;-66
2023/09/22 02:45:12;;;;;;;8.05;3.50;;;;;;;;;;1044452;28;20762;-66
2023/09/22 02:45:42;;;;;;;5.88;3.55;;;;;;;;;;1043308;28;20476;-66
2023/09/22 02:46:12;;;;;;;6.72;3.65;;;;;;;;;;1041461;28;20832;-65
2023/09/22 02:46:43;;;;;;;5.88;3.35;;;;;;;;;;1045144;28;20044;-65
2023/09/22 02:47:14;;;;;;;5.88;3.10;;;;;;;;;;1042482;28;20480;-66
2023/09/22 02:47:45;;;;;;;5.57;3.20;;;;;;;;;;1045643;28;20512;-65
2023/09/22 02:48:15;;;;;;;6.90;3.58;;;;;;;;;;1044099;28;20118;-66
2023/09/22 02:48:46;;;;;;;5.70;3.55;;;;;;;;;;1044913;28;20423;-66
2023/09/22 02:49:16;;;;;;;4.90;2.97;;;;;;;;;;1045127;28;20076;-66
2023/09/22 02:49:47;;;;;;;5.70;3.55;;;;;;;;;;1046014;28;20047;-66
2023/09/22 02:50:19;;;;;;;5.18;3.20;;;;;;;;;;1044990;28;20798;-66
2023/09/22 02:50:49;;;;;;;7.35;3.17;;;;;;;;;;1044520;28;20148;-66
2023/09/22 02:51:20;;;;;;;5.32;3.53;;;;;;;;;;1044705;28;20060;-66
2023/09/22 02:51:50;;;;;;;8.45;4.03;;;;;;;;;;1045844;28;20052;-66
2023/09/22 02:52:21;;;;;;;7.03;3.35;;;;;;;;;;1044563;28;20469;-66
2023/09/22 02:52:51;;;;;;;5.03;3.63;;;;;;;;;;1045813;28;20064;-66
2023/09/22 02:53:22;;;;;;;3.88;3.00;;;;;;;;;;1045548;28;20048;-66
2023/09/22 02:53:56;;;;;;;6.07;3.33;;;;;;;;;;1045483;28;20044;-67
2023/09/22 02:54:26;;;;;;;5.53;3.00;;;;;;;;;;1043928;28;20139;-66
2023/09/22 02:54:59;;;;;;;4.43;3.30;;;;;;;;;;1045859;28;20048;-66
2023/09/22 02:55:31;;;;;;;7.07;3.35;;;;;;;;;;1043670;28;20056;-66
2023/09/22 02:56:04;;;;;;;5.03;3.45;;;;;;;;;;1043428;28;20080;-66
2023/09/22 02:56:35;;;;;;;4.63;3.17;;;;;;;;;;1045889;28;20052;-66
2023/09/22 02:57:06;;;;;;;10.63;3.60;;;;;;;;;;1045402;28;20053;-66
2023/09/22 02:57:37;;;;;;;4.72;3.28;;;;;;;;;;1046405;28;20055;-65
2023/09/22 02:58:08;;;;;;;5.90;3.33;;;;;;;;;;1044374;28;20103;-66
2023/09/22 02:58:39;;;;;;;4.18;3.13;;;;;;;;;;1046106;28;20048;-66
2023/09/22 02:59:10;;;;;;;5.50;3.10;;;;;;;;;;1045044;28;20054;-66
2023/09/22 02:59:41;;;;;;;7.55;3.25;;;;;;;;;;1045958;28;20080;-65
2023/09/22 03:00:20;;;;;;;5.10;3.22;;;;;;;;;;1043532;28;20040;-66
2023/09/22 03:00:51;;;;;;;6.78;3.28;;;;;;;;;;1045628;28;20716;-65
2023/09/22 03:01:22;;;;;;;6.38;3.42;;;;;;;;;;1045320;28;22269;-66
2023/09/22 03:01:52;;;;;;;6.35;3.55;;;;;;;;;;1044809;28;20044;-66
2023/09/22 03:02:22;;;;;;;3.88;3.00;;;;;;;;;;1045614;28;20151;-66
2023/09/22 03:02:53;;;;;;;4.35;2.95;;;;;;;;;;1046305;28;20857;-66
2023/09/22 03:03:24;;;;;;;4.78;3.28;;;;;;;;;;1045498;28;20048;-66
2023/09/22 03:03:55;;;;;;;5.55;3.20;;;;;;;;;;1045582;28;20052;-66
2023/09/22 03:04:25;;;;;;;5.93;3.67;;;;;;;;;;1045954;28;20048;-66
2023/09/22 03:04:55;;;;;;;6.22;3.78;;;;;;;;;;1046470;28;20423;-65
2023/09/22 03:05:26;;;;;;;4.82;2.90;;;;;;;;;;1046356;28;20049;-66
2023/09/22 03:06:00;;;;;;;8.38;3.28;;;;;;;;;;1045190;28;20736;-66
2023/09/22 03:06:30;;;;;;;4.57;3.20;;;;;;;;;;1043938;28;20055;-66